| time (UTC) | temp F | wind direction | speed MPH | gust MPH | rain 1hr in | rain 24hr in | rain mn in | humidity % | barometer mb |
| 20260510101421 | 50 | 302 | 1.0 | 2.0 | 0.00 | 0.00 | 0.00 | 61 | 1017.1 |
| 20260510100421 | 50 | 183 | 1.0 | 1.0 | 0.00 | 0.00 | 0.00 | 61 | 1017.0 |
| 20260510095421 | 50 | 175 | 1.0 | 1.0 | 0.00 | 0.00 | 0.00 | 60 | 1017.0 |
| 20260510094421 | 51 | 186 | 1.0 | 1.0 | 0.00 | 0.00 | 0.00 | 60 | 1016.9 |
| 20260510093441 | 51 | 197 | 1.0 | 2.0 | 0.00 | 0.00 | 0.00 | 58 | 1017.0 |
| 20260510092422 | 51 | 160 | 1.0 | 1.0 | 0.00 | 0.00 | 0.00 | 58 | 1017.0 |
| 20260510091422 | 51 | 140 | 1.0 | 1.0 | 0.00 | 0.00 | 0.00 | 60 | 1017.1 |
| 20260510090422 | 51 | 345 | 2.0 | 2.0 | 0.00 | 0.00 | 0.00 | 58 | 1017.1 |
| 20260510085442 | 52 | 24 | 1.0 | 2.0 | 0.00 | 0.00 | 0.00 | 56 | 1017.0 |
| 20260510084423 | 52 | 263 | 1.0 | 1.0 | 0.00 | 0.00 | 0.00 | 55 | 1017.0 |
| 20260510083423 | 52 | 320 | 2.0 | 2.0 | 0.00 | 0.00 | 0.00 | 54 | 1017.0 |
| 20260510082422 | 53 | 144 | 1.0 | 2.0 | 0.00 | 0.00 | 0.00 | 52 | 1017.0 |
| 20260510081423 | 53 | 262 | 1.0 | 2.0 | 0.00 | 0.00 | 0.00 | 52 | 1017.1 |
| 20260510080423 | 53 | 105 | 1.0 | 1.0 | 0.00 | 0.00 | 0.00 | 52 | 1017.1 |
| 20260510075423 | 54 | 1 | 1.0 | 2.0 | 0.00 | 0.00 | 0.00 | 50 | 1017.1 |
| 20260510074423 | 54 | 74 | 0.0 | 1.0 | 0.00 | 0.00 | 0.00 | 49 | 1017.1 |
| 20260510073424 | 55 | 144 | 1.0 | 2.0 | 0.00 | 0.00 | 0.00 | 46 | 1017.0 |
| 20260510072424 | 56 | 86 | 0.0 | 1.0 | 0.00 | 0.00 | 0.00 | 48 | 1017.0 |
| 20260510071423 | 56 | 117 | 1.0 | 1.0 | 0.00 | 0.00 | 0.00 | 46 | 1017.0 |
| 20260510070424 | 57 | 84 | 1.0 | 2.0 | 0.00 | 0.00 | 0.00 | 44 | 1017.0 |
| 20260510065424 | 57 | 93 | 1.0 | 1.0 | 0.00 | 0.00 | 0.00 | 43 | 1016.9 |
| 20260510064424 | 57 | 132 | 1.0 | 1.0 | 0.00 | 0.00 | 0.00 | 42 | 1017.0 |
| 20260510063424 | 58 | 102 | 1.0 | 1.0 | 0.00 | 0.00 | 0.00 | 41 | 1017.0 |
| 20260510062425 | 58 | 100 | 1.0 | 1.0 | 0.00 | 0.00 | 0.00 | 41 | 1016.9 |
| 20260510061425 | 59 | 97 | 0.0 | 1.0 | 0.00 | 0.00 | 0.00 | 38 | 1016.7 |
| 20260510060424 | 60 | 80 | 0.0 | 1.0 | 0.00 | 0.00 | 0.00 | 38 | 1016.7 |
| 20260510055425 | 60 | 0 | 0.0 | 0.0 | 0.00 | 0.00 | 0.00 | 38 | 1016.7 |
| 20260510054426 | 61 | 108 | 2.0 | 2.0 | 0.00 | 0.00 | 0.00 | 37 | 1016.7 |
| 20260510053426 | 61 | 0.0 | 0.0 | 0.00 | 0.00 | 0.00 | 35 | 1016.7 | |
| 20260510052425 | 61 | 97 | 1.0 | 1.0 | 0.00 | 0.00 | 0.00 | 36 | 1016.6 |
| 20260510051426 | 61 | 84 | 0.0 | 1.0 | 0.00 | 0.00 | 0.00 | 37 | 1016.6 |
| 20260510050426 | 62 | 35 | 0.0 | 0.0 | 0.00 | 0.00 | 0.00 | 41 | 1016.7 |
| 20260510045426 | 63 | 114 | 2.0 | 2.0 | 0.00 | 0.00 | 0.00 | 38 | 1016.6 |
| 20260510044427 | 64 | 104 | 2.0 | 2.0 | 0.00 | 0.00 | 0.00 | 38 | 1016.5 |
| 20260510043436 | 64 | 112 | 2.0 | 2.0 | 0.00 | 0.00 | 0.00 | 37 | 1016.5 |
| 20260510042417 | 65 | 0 | 0.0 | 0.0 | 0.00 | 0.00 | 0.00 | 35 | 1016.5 |
| 20260510041417 | 66 | 0.0 | 0.0 | 0.00 | 0.00 | 0.00 | 31 | 1016.4 | |
| 20260510040417 | 66 | 0.0 | 0.0 | 0.00 | 0.00 | 0.00 | 29 | 1016.3 | |
| 20260510035417 | 68 | 0.0 | 0.0 | 0.00 | 0.00 | 0.00 | 29 | 1016.2 | |
| 20260510034418 | 69 | 53 | 0.0 | 1.0 | 0.00 | 0.00 | 0.00 | 26 | 1016.2 |
| 20260510033418 | 70 | 0.0 | 0.0 | 0.00 | 0.00 | 0.00 | 25 | 1016.1 | |
| 20260510032418 | 70 | 0.0 | 0.0 | 0.00 | 0.00 | 0.00 | 23 | 1016.1 | |
| 20260510031419 | 71 | 0.0 | 0.0 | 0.00 | 0.00 | 0.00 | 23 | 1016.0 | |
| 20260510030418 | 72 | 0.0 | 0.0 | 0.00 | 0.00 | 0.00 | 20 | 1015.9 | |
| 20260510025419 | 73 | 307 | 0.0 | 1.0 | 0.00 | 0.00 | 0.00 | 19 | 1015.9 |
| 20260510024419 | 74 | 287 | 0.0 | 1.0 | 0.00 | 0.00 | 0.00 | 18 | 1015.7 |
| 20260510023419 | 75 | 0.0 | 0.0 | 0.00 | 0.00 | 0.00 | 17 | 1015.9 | |
| 20260510022419 | 76 | 297 | 1.0 | 1.0 | 0.00 | 0.00 | 0.00 | 14 | 1015.7 |
| 20260510021419 | 77 | 0 | 0.0 | 0.0 | 0.00 | 0.00 | 0.00 | 14 | 1015.8 |
| 20260510020420 | 78 | 301 | 2.0 | 2.0 | 0.00 | 0.00 | 0.00 | 14 | 1015.7 |
| 20260510015420 | 79 | 306 | 1.0 | 2.0 | 0.00 | 0.00 | 0.00 | 13 | 1015.7 |
| 20260510014420 | 79 | 296 | 1.0 | 2.0 | 0.00 | 0.00 | 0.00 | 13 | 1015.7 |
| 20260510013420 | 79 | 276 | 1.0 | 1.0 | 0.00 | 0.00 | 0.00 | 13 | 1015.7 |
| 20260510012420 | 79 | 297 | 2.0 | 2.0 | 0.00 | 0.00 | 0.00 | 13 | 1015.8 |
| 20260510011421 | 80 | 279 | 2.0 | 2.0 | 0.00 | 0.00 | 0.00 | 13 | 1015.8 |
| 20260510010441 | 80 | 290 | 2.0 | 2.0 | 0.00 | 0.00 | 0.00 | 14 | 1015.8 |
| 20260510005421 | 80 | 282 | 1.0 | 2.0 | 0.00 | 0.00 | 0.00 | 13 | 1015.8 |
| 20260510004421 | 80 | 317 | 1.0 | 2.0 | 0.00 | 0.00 | 0.00 | 13 | 1015.8 |
| 20260510003422 | 80 | 315 | 0.0 | 1.0 | 0.00 | 0.00 | 0.00 | 14 | 1015.9 |
| 20260510002441 | 80 | 293 | 2.0 | 3.0 | 0.00 | 0.00 | 0.00 | 14 | 1015.9 |
| 20260510001416 | 80 | 290 | 1.0 | 2.0 | 0.00 | 0.00 | 0.00 | 17 | 1015.9 |
| 20260510000418 | 80 | 290 | 1.0 | 1.0 | 0.00 | 0.00 | 0.00 | 18 | 1015.9 |
| 20260509235416 | 79 | 298 | 1.0 | 2.0 | 0.00 | 0.00 | 0.00 | 17 | 1016.0 |
| 20260509234417 | 79 | 272 | 2.0 | 2.0 | 0.00 | 0.00 | 0.00 | 17 | 1016.0 |
| 20260509233417 | 79 | 293 | 2.0 | 3.0 | 0.00 | 0.00 | 0.00 | 17 | 1016.1 |
| 20260509232423 | 79 | 266 | 1.0 | 1.0 | 0.00 | 0.00 | 0.00 | 17 | 1016.3 |
| 20260509231417 | 79 | 265 | 2.0 | 4.0 | 0.00 | 0.00 | 0.00 | 17 | 1016.4 |
| 20260509230417 | 78 | 293 | 2.0 | 2.0 | 0.00 | 0.00 | 0.00 | 18 | 1016.4 |
| 20260509225418 | 78 | 185 | 1.0 | 2.0 | 0.00 | 0.00 | 0.00 | 14 | 1016.5 |
| 20260509224418 | 78 | 244 | 2.0 | 4.0 | 0.00 | 0.00 | 0.00 | 18 | 1016.6 |
| 20260509223418 | 78 | 292 | 1.0 | 2.0 | 0.00 | 0.00 | 0.00 | 17 | 1016.7 |
| 20260509222418 | 78 | 289 | 2.0 | 3.0 | 0.00 | 0.00 | 0.00 | 17 | 1017.0 |
| 20260509221438 | 78 | 273 | 1.0 | 2.0 | 0.00 | 0.00 | 0.00 | 18 | 1017.1 |
| 20260509220418 | 78 | 302 | 1.0 | 2.0 | 0.00 | 0.00 | 0.00 | 19 | 1017.2 |
| 20260509215439 | 77 | 277 | 1.0 | 1.0 | 0.00 | 0.00 | 0.00 | 20 | 1017.3 |
| 20260509214418 | 77 | 263 | 2.0 | 3.0 | 0.00 | 0.00 | 0.00 | 19 | 1017.4 |
| 20260509213419 | 76 | 300 | 2.0 | 3.0 | 0.00 | 0.00 | 0.00 | 19 | 1017.5 |
| 20260509212439 | 76 | 294 | 2.0 | 2.0 | 0.00 | 0.00 | 0.00 | 19 | 1017.6 |
| 20260509211419 | 75 | 224 | 1.0 | 2.0 | 0.00 | 0.00 | 0.00 | 24 | 1017.7 |
| 20260509210419 | 75 | 271 | 2.0 | 2.0 | 0.00 | 0.00 | 0.00 | 25 | 1017.9 |
| 20260509205419 | 74 | 292 | 2.0 | 3.0 | 0.00 | 0.00 | 0.00 | 25 | 1017.9 |
| 20260509204420 | 74 | 306 | 2.0 | 3.0 | 0.00 | 0.00 | 0.00 | 25 | 1018.0 |
| 20260509203420 | 74 | 242 | 1.0 | 1.0 | 0.00 | 0.00 | 0.00 | 29 | 1018.2 |
| 20260509202420 | 73 | 273 | 1.0 | 2.0 | 0.00 | 0.00 | 0.00 | 31 | 1018.3 |
| 20260509201420 | 73 | 233 | 2.0 | 2.0 | 0.00 | 0.00 | 0.00 | 31 | 1018.4 |
| 20260509200421 | 72 | 281 | 1.0 | 2.0 | 0.00 | 0.00 | 0.00 | 31 | 1018.5 |
| 20260509195421 | 72 | 261 | 2.0 | 2.0 | 0.00 | 0.00 | 0.00 | 31 | 1018.6 |
| 20260509194420 | 71 | 285 | 2.0 | 2.0 | 0.00 | 0.00 | 0.00 | 35 | 1018.7 |
| 20260509193421 | 71 | 283 | 1.0 | 1.0 | 0.00 | 0.00 | 0.00 | 35 | 1018.8 |
| 20260509192421 | 70 | 212 | 1.0 | 2.0 | 0.00 | 0.00 | 0.00 | 32 | 1019.1 |
| 20260509191422 | 70 | 301 | 2.0 | 3.0 | 0.00 | 0.00 | 0.00 | 32 | 1019.1 |
| 20260509190422 | 70 | 278 | 1.0 | 2.0 | 0.00 | 0.00 | 0.00 | 31 | 1019.2 |
| 20260509185422 | 69 | 284 | 1.0 | 1.0 | 0.00 | 0.00 | 0.00 | 35 | 1019.3 |
| 20260509184422 | 69 | 269 | 2.0 | 3.0 | 0.00 | 0.00 | 0.00 | 37 | 1019.3 |
| 20260509183442 | 68 | 255 | 1.0 | 4.0 | 0.00 | 0.00 | 0.00 | 36 | 1019.6 |
| 20260509182422 | 67 | 307 | 2.0 | 2.0 | 0.00 | 0.00 | 0.00 | 37 | 1019.6 |
| 20260509181423 | 67 | 237 | 1.0 | 2.0 | 0.00 | 0.00 | 0.00 | 37 | 1019.6 |
| 20260509180423 | 66 | 248 | 2.0 | 3.0 | 0.00 | 0.00 | 0.00 | 38 | 1019.6 |
| 20260509175423 | 65 | 269 | 2.0 | 4.0 | 0.00 | 0.00 | 0.00 | 44 | 1019.8 |
| 20260509174423 | 64 | 281 | 1.0 | 3.0 | 0.00 | 0.00 | 0.00 | 43 | 1019.8 |
| 20260509173423 | 64 | 284 | 1.0 | 2.0 | 0.00 | 0.00 | 0.00 | 43 | 1019.9 |
| 20260509172423 | 63 | 231 | 2.0 | 5.0 | 0.00 | 0.00 | 0.00 | 46 | 1019.9 |
| 20260509171425 | 62 | 297 | 3.0 | 4.0 | 0.00 | 0.00 | 0.00 | 48 | 1019.9 |
| 20260509170424 | 62 | 278 | 1.0 | 2.0 | 0.00 | 0.00 | 0.00 | 49 | 1019.9 |
| 20260509165424 | 61 | 302 | 1.0 | 2.0 | 0.00 | 0.00 | 0.00 | 52 | 1019.9 |
| 20260509164424 | 60 | 243 | 1.0 | 1.0 | 0.00 | 0.00 | 0.00 | 52 | 1019.9 |
| 20260509163424 | 60 | 256 | 2.0 | 3.0 | 0.00 | 0.00 | 0.00 | 52 | 1020.0 |
| 20260509162424 | 59 | 0 | 0.0 | 0.0 | 0.00 | 0.00 | 0.00 | 54 | 1019.9 |
| 20260509161424 | 58 | 235 | 2.0 | 3.0 | 0.00 | 0.00 | 0.00 | 54 | 1019.9 |
| 20260509160425 | 58 | 320 | 1.0 | 2.0 | 0.00 | 0.00 | 0.00 | 56 | 1019.9 |
| 20260509155425 | 57 | 273 | 1.0 | 2.0 | 0.00 | 0.00 | 0.00 | 55 | 1019.8 |
| 20260509154425 | 56 | 229 | 1.0 | 1.0 | 0.00 | 0.00 | 0.00 | 56 | 1019.8 |
| 20260509153426 | 56 | 0 | 0.0 | 1.0 | 0.00 | 0.00 | 0.00 | 56 | 1019.9 |
| 20260509152425 | 55 | 279 | 2.0 | 3.0 | 0.00 | 0.00 | 0.00 | 58 | 1019.9 |
| 20260509151425 | 54 | 326 | 1.0 | 2.0 | 0.00 | 0.00 | 0.00 | 58 | 1019.9 |
| 20260509150425 | 54 | 232 | 1.0 | 1.0 | 0.00 | 0.00 | 0.00 | 58 | 1019.8 |
| 20260509145446 | 53 | 338 | 1.0 | 2.0 | 0.00 | 0.00 | 0.00 | 60 | 1019.9 |
| 20260509144426 | 53 | 181 | 1.0 | 2.0 | 0.00 | 0.00 | 0.00 | 60 | 1019.8 |
| 20260509143426 | 52 | 289 | 1.0 | 1.0 | 0.00 | 0.00 | 0.00 | 61 | 1019.8 |
| 20260509142427 | 52 | 294 | 1.0 | 2.0 | 0.00 | 0.00 | 0.00 | 61 | 1019.7 |
| 20260509141426 | 51 | 226 | 1.0 | 1.0 | 0.00 | 0.00 | 0.00 | 62 | 1019.7 |
| 20260509140426 | 51 | 209 | 1.0 | 2.0 | 0.00 | 0.00 | 0.00 | 64 | 1019.7 |
| 20260509135427 | 50 | 329 | 2.0 | 2.0 | 0.00 | 0.00 | 0.00 | 65 | 1019.6 |
| 20260509134427 | 50 | 228 | 1.0 | 2.0 | 0.00 | 0.00 | 0.00 | 67 | 1019.6 |
| 20260509133427 | 49 | 155 | 1.0 | 2.0 | 0.00 | 0.00 | 0.00 | 65 | 1019.6 |
| 20260509132428 | 49 | 211 | 1.0 | 1.0 | 0.00 | 0.00 | 0.00 | 65 | 1019.6 |
| 20260509131428 | 49 | 286 | 1.0 | 2.0 | 0.00 | 0.00 | 0.00 | 64 | 1019.5 |
| 20260509130428 | 49 | 180 | 2.0 | 2.0 | 0.00 | 0.00 | 0.00 | 64 | 1019.3 |
| 20260509125508 | 50 | 198 | 1.0 | 1.0 | 0.00 | 0.00 | 0.00 | 62 | 1019.2 |
| 20260509124448 | 50 | 157 | 1.0 | 1.0 | 0.00 | 0.00 | 0.00 | 61 | 1019.0 |
| 20260509123416 | 51 | 297 | 1.0 | 1.0 | 0.00 | 0.00 | 0.00 | 58 | 1019.0 |
| 20260509122456 | 51 | 356 | 1.0 | 2.0 | 0.00 | 0.00 | 0.00 | 58 | 1018.9 |
| 20260509121437 | 52 | 273 | 1.0 | 2.0 | 0.00 | 0.00 | 0.00 | 56 | 1018.9 |
| 20260509120417 | 52 | 210 | 1.0 | 1.0 | 0.00 | 0.00 | 0.00 | 55 | 1018.8 |
| 20260509115417 | 52 | 204 | 1.0 | 1.0 | 0.00 | 0.00 | 0.00 | 55 | 1018.6 |
| 20260509114418 | 52 | 217 | 1.0 | 1.0 | 0.00 | 0.00 | 0.00 | 55 | 1018.5 |
| 20260509113417 | 52 | 261 | 1.0 | 2.0 | 0.00 | 0.00 | 0.00 | 55 | 1018.5 |
| 20260509112418 | 53 | 200 | 1.0 | 1.0 | 0.00 | 0.00 | 0.00 | 55 | 1018.5 |
| 20260509111418 | 53 | 301 | 1.0 | 2.0 | 0.00 | 0.00 | 0.00 | 54 | 1018.4 |
| 20260509110418 | 53 | 207 | 1.0 | 2.0 | 0.00 | 0.00 | 0.00 | 54 | 1018.4 |
| 20260509105438 | 53 | 87 | 1.0 | 2.0 | 0.00 | 0.00 | 0.00 | 54 | 1018.3 |
| 20260509104418 | 53 | 8 | 1.0 | 1.0 | 0.00 | 0.00 | 0.00 | 54 | 1018.2 |
| 20260509103419 | 53 | 214 | 1.0 | 1.0 | 0.00 | 0.00 | 0.00 | 52 | 1018.0 |
| 20260509102419 | 54 | 68 | 1.0 | 1.0 | 0.00 | 0.00 | 0.00 | 50 | 1018.2 |